createdAt,value
2022-12-26T00:01:53.930Z,23.50
2022-12-26T00:04:51.180Z,23.30
2022-12-26T00:07:12.366Z,23.40
2022-12-26T00:09:40.868Z,23.00
2022-12-26T00:12:09.304Z,22.10
2022-12-26T00:14:39.166Z,22.10
2022-12-26T00:17:07.451Z,23.50
2022-12-26T00:19:35.896Z,23.50
2022-12-26T00:22:04.214Z,18.60
2022-12-26T00:24:32.677Z,25.20
2022-12-26T00:27:01.010Z,23.10
2022-12-26T00:29:29.452Z,25.10
2022-12-26T00:31:57.819Z,24.40
2022-12-26T00:34:26.199Z,23.90
2022-12-26T00:36:54.668Z,23.90
2022-12-26T00:39:22.966Z,22.30
2022-12-26T00:41:51.388Z,23.90
2022-12-26T00:44:19.894Z,25.30
2022-12-26T00:46:48.324Z,25.60
2022-12-26T00:49:16.640Z,24.40
2022-12-26T00:51:44.996Z,23.80
2022-12-26T00:54:13.253Z,25.30
2022-12-26T00:56:41.620Z,26.10
2022-12-26T00:59:09.997Z,25.10
2022-12-26T01:01:38.685Z,26.40
2022-12-26T01:04:07.248Z,23.90
2022-12-26T01:06:35.704Z,27.40
2022-12-26T01:09:04.166Z,23.90
2022-12-26T01:11:41.413Z,24.30
2022-12-26T01:14:17.081Z,23.80
2022-12-26T01:16:47.153Z,22.60
2022-12-26T01:19:15.909Z,25.10
2022-12-26T01:21:44.319Z,23.50
2022-12-26T01:24:14.178Z,21.40
2022-12-26T01:26:42.525Z,20.70
2022-12-26T01:29:10.960Z,23.80
2022-12-26T01:31:39.459Z,21.50
2022-12-26T01:34:08.917Z,21.20
2022-12-26T01:36:37.161Z,22.00
2022-12-26T01:39:05.596Z,21.50
2022-12-26T01:41:34.001Z,23.30
2022-12-26T01:44:26.707Z,22.30
2022-12-26T01:46:55.138Z,21.80
2022-12-26T01:49:42.212Z,21.10
2022-12-26T01:52:28.695Z,21.40
2022-12-26T01:54:58.001Z,24.30
2022-12-26T01:57:34.073Z,23.10
2022-12-26T02:00:04.753Z,21.40
2022-12-26T02:02:53.248Z,22.70
2022-12-26T02:05:34.500Z,20.30
2022-12-26T02:08:04.491Z,21.80
2022-12-26T02:10:57.389Z,22.70
2022-12-26T02:13:31.112Z,24.60
2022-12-26T02:15:59.593Z,20.40
2022-12-26T02:18:27.911Z,20.00
2022-12-26T02:21:15.091Z,23.00
2022-12-26T02:24:07.847Z,19.70
2022-12-26T02:27:03.651Z,26.20
2022-12-26T02:29:50.320Z,17.60
2022-12-26T02:32:46.231Z,22.70
2022-12-26T02:35:43.095Z,28.60
2022-12-26T02:38:11.432Z,22.90
2022-12-26T02:41:09.563Z,23.70
2022-12-26T02:43:45.173Z,27.50
2022-12-26T02:46:37.780Z,21.50
2022-12-26T02:49:10.658Z,26.80
2022-12-26T02:52:13.161Z,24.00
2022-12-26T02:55:11.180Z,22.00
2022-12-26T02:58:11.220Z,28.50
2022-12-26T03:01:03.248Z,52.10
2022-12-26T03:03:54.072Z,34.30
2022-12-26T03:07:03.852Z,28.90
2022-12-26T03:09:53.752Z,31.80
2022-12-26T03:12:53.152Z,33.00
2022-12-26T03:15:25.310Z,31.60
2022-12-26T03:18:01.482Z,31.50
2022-12-26T03:20:36.269Z,31.10
2022-12-26T03:23:12.244Z,33.20
2022-12-26T03:26:17.366Z,32.60
2022-12-26T03:28:48.257Z,32.50
2022-12-26T03:31:16.770Z,36.00
2022-12-26T03:34:06.203Z,36.00
2022-12-26T03:36:53.233Z,41.60
2022-12-26T03:39:44.292Z,39.00
2022-12-26T03:42:57.125Z,40.30
2022-12-26T03:45:54.553Z,35.80
2022-12-26T03:48:49.436Z,42.40
2022-12-26T03:51:54.754Z,41.80
2022-12-26T03:54:56.541Z,37.60
2022-12-26T03:57:50.381Z,48.30
2022-12-26T04:00:37.789Z,42.70
2022-12-26T04:03:29.599Z,43.10
2022-12-26T04:06:21.290Z,50.60
2022-12-26T04:09:34.500Z,42.80
2022-12-26T04:12:21.981Z,49.70
2022-12-26T04:15:19.706Z,50.60
2022-12-26T04:18:20.485Z,49.40
2022-12-26T04:21:43.074Z,54.20
2022-12-26T04:24:38.399Z,47.20
2022-12-26T04:27:31.029Z,47.70
2022-12-26T04:30:18.166Z,51.90
2022-12-26T04:33:07.899Z,49.20
2022-12-26T04:36:12.418Z,50.30
2022-12-26T04:39:12.316Z,41.20
2022-12-26T04:42:02.109Z,42.50
2022-12-26T04:44:32.555Z,39.60
2022-12-26T04:47:00.987Z,34.20
2022-12-26T04:49:48.070Z,34.20
2022-12-26T04:52:16.535Z,36.00
2022-12-26T04:54:44.802Z,35.30
2022-12-26T04:57:13.146Z,33.80
2022-12-26T04:59:41.401Z,30.00
2022-12-26T05:02:28.896Z,31.70
2022-12-26T05:05:42.617Z,28.70
2022-12-26T05:08:44.563Z,30.20
2022-12-26T05:11:12.988Z,30.20
2022-12-26T05:13:41.247Z,32.00
2022-12-26T05:16:28.112Z,32.00
2022-12-26T05:19:15.139Z,33.20
2022-12-26T05:22:02.723Z,32.80
2022-12-26T05:24:53.911Z,31.60
2022-12-26T05:27:41.457Z,29.60
2022-12-26T05:30:10.751Z,33.50
2022-12-26T05:32:57.734Z,31.60
2022-12-26T05:35:27.357Z,28.30
2022-12-26T05:37:55.686Z,32.10
2022-12-26T05:40:24.087Z,34.50
2022-12-26T05:42:52.424Z,29.90
2022-12-26T05:45:21.138Z,32.40
2022-12-26T05:47:52.077Z,34.50
2022-12-26T05:50:20.790Z,31.20
2022-12-26T05:52:49.114Z,30.50
2022-12-26T05:55:17.561Z,30.40
2022-12-26T05:57:45.875Z,30.00
2022-12-26T06:00:14.978Z,31.10
2022-12-26T06:02:43.739Z,32.60
2022-12-26T06:05:51.346Z,27.30
2022-12-26T06:08:20.028Z,27.90
2022-12-26T06:10:48.457Z,30.90
2022-12-26T06:13:16.843Z,30.90
2022-12-26T06:15:45.349Z,30.80
2022-12-26T06:18:13.684Z,30.70
2022-12-26T06:20:42.104Z,28.70
2022-12-26T06:23:10.466Z,27.20
2022-12-26T06:25:38.823Z,29.20
2022-12-26T06:28:07.247Z,27.60
2022-12-26T06:30:35.589Z,30.60
2022-12-26T06:33:03.953Z,29.80
2022-12-26T06:35:34.385Z,28.50
2022-12-26T06:38:02.765Z,27.50
2022-12-26T06:40:31.228Z,26.60
2022-12-26T06:42:59.576Z,26.90
2022-12-26T06:45:27.926Z,25.70
2022-12-26T06:47:56.223Z,25.20
2022-12-26T06:50:24.618Z,22.30
2022-12-26T06:52:53.135Z,22.90
2022-12-26T06:55:21.549Z,25.70
2022-12-26T06:57:52.814Z,24.00
2022-12-26T07:00:21.210Z,24.80
2022-12-26T07:02:51.904Z,25.20
2022-12-26T07:05:21.481Z,23.50
2022-12-26T07:07:53.318Z,20.80
2022-12-26T07:10:22.225Z,23.00
2022-12-26T07:12:50.600Z,22.50
2022-12-26T07:15:19.245Z,23.20
2022-12-26T07:17:47.707Z,24.10
2022-12-26T07:20:16.159Z,23.40
2022-12-26T07:22:44.769Z,23.00
2022-12-26T07:25:13.096Z,22.10
2022-12-26T07:27:41.505Z,24.10
2022-12-26T07:30:10.776Z,23.60
2022-12-26T07:32:39.041Z,22.80
2022-12-26T07:35:07.824Z,21.40
2022-12-26T07:37:36.112Z,23.20
2022-12-26T07:40:05.064Z,22.60
2022-12-26T07:42:33.509Z,23.80
2022-12-26T07:45:05.680Z,24.80
2022-12-26T07:47:34.181Z,22.60
2022-12-26T07:50:02.522Z,22.80
2022-12-26T07:52:31.381Z,22.90
2022-12-26T07:54:59.958Z,22.60
2022-12-26T07:57:48.000Z,22.70
2022-12-26T08:00:17.185Z,22.60
2022-12-26T08:02:49.206Z,23.70
2022-12-26T08:05:21.375Z,24.50
2022-12-26T08:07:50.054Z,22.00
2022-12-26T08:10:18.506Z,22.00
2022-12-26T08:12:46.968Z,21.20
2022-12-26T08:15:15.411Z,20.50
2022-12-26T08:17:43.845Z,21.90
2022-12-26T08:20:12.543Z,20.70
2022-12-26T08:22:41.293Z,22.40
2022-12-26T08:25:10.425Z,21.50
2022-12-26T08:27:40.427Z,43.10
2022-12-26T08:30:09.974Z,37.50
2022-12-26T08:32:41.021Z,39.70
2022-12-26T08:35:12.574Z,28.00
2022-12-26T08:37:40.963Z,25.70
2022-12-26T08:40:10.228Z,27.30
2022-12-26T08:42:44.693Z,27.70
2022-12-26T08:45:24.934Z,23.30
2022-12-26T08:47:55.574Z,24.40
2022-12-26T08:50:24.809Z,23.30
2022-12-26T08:52:53.242Z,22.50
2022-12-26T08:55:21.668Z,23.30
2022-12-26T08:57:50.063Z,27.10
2022-12-26T09:00:18.709Z,21.30
2022-12-26T09:02:48.452Z,24.90
2022-12-26T09:05:20.282Z,22.90
2022-12-26T09:07:48.727Z,22.90
2022-12-26T09:10:17.177Z,21.00
2022-12-26T09:12:45.476Z,23.70
2022-12-26T09:15:13.821Z,20.10
2022-12-26T09:17:42.300Z,20.60
2022-12-26T09:20:11.333Z,21.20
2022-12-26T09:22:52.024Z,23.60
2022-12-26T09:25:23.805Z,21.70
2022-12-26T09:27:58.724Z,20.70
2022-12-26T09:30:27.550Z,20.00
2022-12-26T09:32:55.944Z,21.60
2022-12-26T09:35:24.660Z,21.20
2022-12-26T09:37:52.999Z,20.30
2022-12-26T09:40:24.916Z,20.00
2022-12-26T09:43:14.784Z,20.60
2022-12-26T09:45:55.900Z,22.00
2022-12-26T09:48:33.491Z,18.90
2022-12-26T09:51:02.036Z,18.10
2022-12-26T09:53:35.586Z,17.30
2022-12-26T09:56:23.626Z,18.70
2022-12-26T09:59:06.807Z,18.00
2022-12-26T10:01:37.273Z,19.80
2022-12-26T10:04:11.238Z,19.00
2022-12-26T10:06:49.749Z,21.70
2022-12-26T10:09:45.597Z,18.40
2022-12-26T10:12:21.973Z,17.90
2022-12-26T10:15:26.578Z,19.20
2022-12-26T10:18:12.843Z,17.60
2022-12-26T10:20:54.428Z,17.60
2022-12-26T10:23:35.106Z,17.70
2022-12-26T10:26:11.710Z,18.20
2022-12-26T10:28:50.213Z,18.20
2022-12-26T10:31:41.841Z,16.00
2022-12-26T10:34:20.985Z,15.90
2022-12-26T10:36:55.526Z,17.10
2022-12-26T10:39:27.307Z,17.90
2022-12-26T10:42:12.083Z,16.80
2022-12-26T10:44:41.588Z,18.50
2022-12-26T10:47:22.511Z,15.70
2022-12-26T10:49:50.922Z,17.80
2022-12-26T10:52:25.041Z,17.50
2022-12-26T10:55:29.406Z,17.10
2022-12-26T10:57:51.797Z,15.10
2022-12-26T11:00:23.301Z,15.50
2022-12-26T11:03:13.003Z,15.90
2022-12-26T11:06:09.938Z,16.20
2022-12-26T11:08:52.306Z,16.20
2022-12-26T11:11:48.402Z,14.70
2022-12-26T11:14:33.668Z,17.10
2022-12-26T11:17:07.753Z,18.00
2022-12-26T11:19:44.726Z,17.20
2022-12-26T11:22:28.447Z,16.60
2022-12-26T11:25:25.119Z,15.70
2022-12-26T11:27:59.073Z,16.80
2022-12-26T11:30:39.203Z,14.70
2022-12-26T11:33:14.641Z,16.00
2022-12-26T11:36:10.912Z,14.90
2022-12-26T11:38:48.703Z,15.90
2022-12-26T11:41:32.988Z,16.40
2022-12-26T11:44:22.767Z,14.90
2022-12-26T11:47:00.677Z,17.20
2022-12-26T11:49:31.715Z,16.30
2022-12-26T11:52:03.095Z,16.30
2022-12-26T11:54:49.533Z,16.60
2022-12-26T11:57:27.556Z,17.60
2022-12-26T12:00:14.637Z,17.10
2022-12-26T12:02:43.445Z,16.40
2022-12-26T12:05:33.535Z,16.40
2022-12-26T12:08:10.237Z,14.90
2022-12-26T12:10:57.495Z,17.10
2022-12-26T12:14:07.236Z,15.10
2022-12-26T12:17:02.245Z,14.50
2022-12-26T12:19:49.330Z,15.80
2022-12-26T12:22:32.953Z,14.40
2022-12-26T12:25:26.716Z,15.40
2022-12-26T12:28:16.491Z,15.50
2022-12-26T12:30:57.147Z,14.20
2022-12-26T12:34:00.783Z,17.30
2022-12-26T12:36:55.274Z,15.60
2022-12-26T12:39:48.248Z,15.40
2022-12-26T12:42:35.202Z,15.40
2022-12-26T12:45:49.710Z,15.00
2022-12-26T12:49:12.992Z,15.30
2022-12-26T12:52:02.739Z,15.70
2022-12-26T12:55:16.091Z,18.30
2022-12-26T12:58:07.489Z,17.20
2022-12-26T13:00:45.591Z,16.80
2022-12-26T13:03:16.471Z,18.00
2022-12-26T13:06:12.385Z,19.30
2022-12-26T13:08:46.172Z,18.00
2022-12-26T13:11:44.681Z,18.20
2022-12-26T13:14:42.983Z,17.90
2022-12-26T13:17:30.170Z,18.40
2022-12-26T13:20:05.114Z,18.00
2022-12-26T13:23:06.046Z,17.20
2022-12-26T13:25:43.666Z,18.20
2022-12-26T13:28:21.713Z,18.40
2022-12-26T13:30:54.696Z,18.20
2022-12-26T13:33:23.725Z,18.50
2022-12-26T13:35:59.235Z,16.80
2022-12-26T13:38:58.836Z,16.90
2022-12-26T13:41:47.087Z,16.00
2022-12-26T13:44:18.646Z,17.00
2022-12-26T13:46:46.974Z,17.90
2022-12-26T13:49:40.976Z,18.60
2022-12-26T13:52:12.493Z,16.90
2022-12-26T13:54:50.652Z,17.50
2022-12-26T13:57:42.935Z,17.30
2022-12-26T14:00:25.387Z,17.00
2022-12-26T14:03:19.225Z,16.30
2022-12-26T14:06:26.309Z,17.20
2022-12-26T14:09:16.830Z,17.80
2022-12-26T14:11:47.911Z,16.50
2022-12-26T14:14:52.483Z,16.50
2022-12-26T14:17:43.081Z,16.20
2022-12-26T14:20:39.037Z,15.40
2022-12-26T14:23:19.154Z,16.00
2022-12-26T14:26:17.698Z,15.60
2022-12-26T14:29:13.765Z,14.10
2022-12-26T14:31:47.982Z,15.10
2022-12-26T14:35:06.820Z,15.40
2022-12-26T14:37:50.054Z,17.60
2022-12-26T14:40:30.954Z,17.20
2022-12-26T14:43:12.906Z,16.20
2022-12-26T14:45:49.179Z,15.90
2022-12-26T14:48:17.462Z,15.90
2022-12-26T14:50:49.165Z,16.10
2022-12-26T14:53:20.720Z,18.50
2022-12-26T14:55:51.304Z,16.80
2022-12-26T14:58:39.009Z,17.20
2022-12-26T15:01:10.560Z,15.50
2022-12-26T15:04:06.483Z,14.70
2022-12-26T15:07:07.745Z,14.70
2022-12-26T15:09:42.362Z,13.50
2022-12-26T15:12:35.262Z,13.40
2022-12-26T15:15:12.518Z,13.10
2022-12-26T15:18:09.973Z,13.80
2022-12-26T15:20:41.153Z,13.70
2022-12-26T15:23:15.602Z,14.30
2022-12-26T15:26:24.977Z,13.80
2022-12-26T15:29:24.358Z,13.60
2022-12-26T15:32:26.895Z,14.50
2022-12-26T15:35:22.460Z,14.60
2022-12-26T15:38:32.611Z,14.40
2022-12-26T15:41:30.086Z,13.60
2022-12-26T15:43:58.422Z,14.10
2022-12-26T15:47:02.292Z,15.80
2022-12-26T15:49:57.872Z,11.80
2022-12-26T15:52:44.871Z,14.90
2022-12-26T15:55:29.852Z,14.50
2022-12-26T15:58:20.004Z,17.20
2022-12-26T16:00:53.848Z,15.80
2022-12-26T16:06:33.522Z,15.70
2022-12-26T16:09:23.628Z,15.10
2022-12-26T16:11:58.068Z,14.50
2022-12-26T16:14:29.569Z,15.30
2022-12-26T16:17:11.436Z,15.10
2022-12-26T16:19:44.411Z,17.40
2022-12-26T16:22:48.750Z,17.70
2022-12-26T16:25:25.491Z,19.70
2022-12-26T16:27:57.845Z,21.30
2022-12-26T16:30:31.160Z,21.30
2022-12-26T16:33:00.775Z,21.40
2022-12-26T16:35:33.949Z,26.10
2022-12-26T16:38:05.727Z,24.60
2022-12-26T16:40:58.454Z,20.70
2022-12-26T16:43:30.969Z,19.60
2022-12-26T16:46:03.990Z,20.40
2022-12-26T16:48:34.321Z,17.50
2022-12-26T16:51:28.238Z,18.10
2022-12-26T16:54:15.751Z,18.60
2022-12-26T16:56:53.029Z,18.00
2022-12-26T16:59:29.298Z,18.00
2022-12-26T17:08:15.627Z,18.20
2022-12-26T17:10:49.586Z,17.30
2022-12-26T17:15:56.009Z,18.60
2022-12-26T17:18:39.698Z,18.30
2022-12-26T17:21:20.632Z,19.10
2022-12-26T17:24:08.005Z,19.10
2022-12-26T17:26:38.402Z,18.20
2022-12-26T17:29:06.974Z,18.10
2022-12-26T17:31:41.207Z,17.60
2022-12-26T17:34:23.138Z,17.20
2022-12-26T17:37:18.459Z,17.50
2022-12-26T17:39:41.602Z,19.20
2022-12-26T17:42:14.043Z,17.50
2022-12-26T17:44:45.397Z,18.10
2022-12-26T17:47:25.329Z,16.30
2022-12-26T17:49:54.816Z,16.50
2022-12-26T17:52:27.616Z,17.40
2022-12-26T17:54:58.796Z,18.60
2022-12-26T17:57:29.623Z,16.60
2022-12-26T17:59:58.949Z,17.60
2022-12-26T18:02:27.890Z,17.70
2022-12-26T18:05:34.462Z,17.80
2022-12-26T18:08:04.243Z,15.90
2022-12-26T18:10:36.453Z,17.20
2022-12-26T18:13:07.186Z,17.50
2022-12-26T18:15:35.648Z,17.30
2022-12-26T18:18:05.415Z,19.00
2022-12-26T18:20:33.975Z,17.60
2022-12-26T18:23:02.364Z,18.50
2022-12-26T18:25:31.231Z,17.40
2022-12-26T18:28:00.092Z,19.70
2022-12-26T18:30:29.042Z,18.20
2022-12-26T18:32:58.065Z,18.60
2022-12-26T18:35:26.472Z,21.70
2022-12-26T18:37:55.739Z,18.90
2022-12-26T18:40:32.179Z,18.90
2022-12-26T18:43:01.390Z,18.20
2022-12-26T18:45:30.898Z,18.10
2022-12-26T18:48:00.944Z,18.70
2022-12-26T18:50:31.290Z,19.30
2022-12-26T18:53:00.721Z,19.70
2022-12-26T18:55:29.715Z,18.10
2022-12-26T18:57:58.747Z,18.90
2022-12-26T19:00:27.261Z,17.90
2022-12-26T19:02:57.353Z,19.10
2022-12-26T19:05:48.962Z,17.60
2022-12-26T19:08:17.940Z,17.40
2022-12-26T19:10:47.683Z,19.80
2022-12-26T19:13:16.694Z,18.60
2022-12-26T19:15:48.246Z,18.40
2022-12-26T19:18:15.825Z,19.20
2022-12-26T19:20:45.444Z,19.00
2022-12-26T19:23:14.295Z,19.50
2022-12-26T19:25:42.834Z,18.00
2022-12-26T19:28:11.244Z,17.80
2022-12-26T19:30:40.078Z,18.60
2022-12-26T19:33:09.236Z,16.50
2022-12-26T19:35:38.291Z,18.10
2022-12-26T19:38:08.264Z,18.10
2022-12-26T19:40:36.979Z,18.70
2022-12-26T19:43:06.168Z,19.80
2022-12-26T19:45:35.158Z,18.10
2022-12-26T19:48:04.797Z,18.30
2022-12-26T19:50:33.984Z,16.90
2022-12-26T19:53:03.594Z,18.00
2022-12-26T19:55:33.577Z,17.20
2022-12-26T19:58:02.616Z,16.30
2022-12-26T20:00:31.575Z,18.10
2022-12-26T20:03:00.561Z,16.30
2022-12-26T20:05:32.617Z,19.80
2022-12-26T20:08:01.081Z,17.00
2022-12-26T20:10:31.572Z,18.20
2022-12-26T20:13:00.712Z,17.90
2022-12-26T20:15:29.938Z,18.00
2022-12-26T20:17:58.417Z,18.70
2022-12-26T20:20:27.321Z,17.90
2022-12-26T20:22:56.540Z,16.80
2022-12-26T20:25:25.166Z,20.00
2022-12-26T20:27:54.530Z,17.80
2022-12-26T20:30:23.070Z,18.30
2022-12-26T20:32:51.554Z,20.20
2022-12-26T20:35:20.471Z,18.00
2022-12-26T20:37:48.896Z,18.70
2022-12-26T20:40:17.845Z,19.90
2022-12-26T20:42:46.917Z,17.60
2022-12-26T20:45:16.075Z,22.00
2022-12-26T20:47:44.683Z,17.90
2022-12-26T20:50:13.329Z,17.80
2022-12-26T20:52:41.988Z,17.00
2022-12-26T20:55:10.568Z,14.30
2022-12-26T20:57:39.800Z,17.00
2022-12-26T21:00:10.390Z,15.60
2022-12-26T21:02:39.426Z,15.70
2022-12-26T21:05:09.579Z,15.40
2022-12-26T21:07:39.462Z,15.10
2022-12-26T21:10:09.538Z,14.50
2022-12-26T21:12:38.097Z,14.90
2022-12-26T21:15:07.588Z,14.40
2022-12-26T21:17:37.339Z,13.30
2022-12-26T21:20:07.125Z,13.50
2022-12-26T21:22:35.571Z,13.10
2022-12-26T21:25:04.243Z,12.20
2022-12-26T21:27:32.971Z,13.30
2022-12-26T21:30:02.145Z,12.00
2022-12-26T21:32:30.528Z,14.10
2022-12-26T21:34:59.060Z,13.50
2022-12-26T21:37:46.608Z,14.40
2022-12-26T21:40:15.798Z,12.10
2022-12-26T21:42:44.068Z,14.60
2022-12-26T21:45:12.679Z,12.40
2022-12-26T21:47:41.213Z,13.60
2022-12-26T21:50:09.897Z,11.60
2022-12-26T21:52:38.314Z,11.40
2022-12-26T21:55:25.786Z,14.20
2022-12-26T21:57:55.646Z,10.40
2022-12-26T22:00:24.897Z,9.10
2022-12-26T22:03:12.332Z,11.10
2022-12-26T22:05:44.453Z,7.50
2022-12-26T22:08:13.059Z,8.80
2022-12-26T22:11:03.845Z,9.40
2022-12-26T22:13:40.605Z,10.00
2022-12-26T22:16:11.787Z,10.00
2022-12-26T22:18:46.439Z,8.50
2022-12-26T22:21:17.655Z,10.00
2022-12-26T22:23:47.711Z,9.60
2022-12-26T22:26:16.787Z,8.90
2022-12-26T22:28:45.743Z,9.60
2022-12-26T22:31:24.541Z,8.80
2022-12-26T22:34:01.762Z,11.20
2022-12-26T22:36:31.834Z,9.00
2022-12-26T22:39:00.669Z,8.20
2022-12-26T22:41:29.765Z,10.20
2022-12-26T22:43:58.265Z,10.00
2022-12-26T22:46:26.690Z,9.10
2022-12-26T22:48:55.072Z,9.20
2022-12-26T22:51:25.850Z,9.90
2022-12-26T22:53:59.685Z,10.20
2022-12-26T22:56:29.791Z,9.80
2022-12-26T22:59:03.531Z,8.20
2022-12-26T23:01:32.274Z,8.80
2022-12-26T23:04:01.732Z,9.80
2022-12-26T23:06:48.395Z,8.30
2022-12-26T23:09:17.574Z,8.40
2022-12-26T23:12:06.140Z,7.90
2022-12-26T23:14:35.678Z,7.20
2022-12-26T23:17:09.115Z,6.00
2022-12-26T23:19:56.103Z,5.70
2022-12-26T23:22:24.789Z,6.10
2022-12-26T23:24:53.115Z,6.30
2022-12-26T23:27:40.419Z,5.60
2022-12-26T23:30:18.263Z,6.30
2022-12-26T23:32:50.603Z,5.90
2022-12-26T23:35:20.329Z,6.30
2022-12-26T23:37:48.879Z,6.20
2022-12-26T23:40:19.664Z,5.50
2022-12-26T23:42:48.156Z,5.30
2022-12-26T23:45:17.429Z,5.50
2022-12-26T23:47:46.255Z,5.10
2022-12-26T23:50:16.580Z,5.40
2022-12-26T23:52:45.049Z,4.60
2022-12-26T23:55:13.918Z,3.90
2022-12-26T23:57:42.467Z,4.30
